createdAt,value
2023-04-23T00:00:14.359Z,10.93
2023-04-23T00:02:45.249Z,10.91
2023-04-23T00:05:13.982Z,10.91
2023-04-23T00:07:42.777Z,10.88
2023-04-23T00:10:11.069Z,10.90
2023-04-23T00:12:39.283Z,10.88
2023-04-23T00:15:07.743Z,10.85
2023-04-23T00:17:35.535Z,10.83
2023-04-23T00:20:03.422Z,10.85
2023-04-23T00:22:31.179Z,10.85
2023-04-23T00:24:58.794Z,10.85
2023-04-23T00:27:26.338Z,10.81
2023-04-23T00:29:53.999Z,10.80
2023-04-23T00:32:22.804Z,10.80
2023-04-23T00:34:51.284Z,10.80
2023-04-23T00:37:18.873Z,10.82
2023-04-23T00:39:46.484Z,10.82
2023-04-23T00:42:14.268Z,10.82
2023-04-23T00:44:43.667Z,10.86
2023-04-23T00:47:12.372Z,10.87
2023-04-23T00:49:42.702Z,10.87
2023-04-23T00:52:10.368Z,10.89
2023-04-23T00:54:37.959Z,10.90
2023-04-23T00:57:08.055Z,10.89
2023-04-23T00:59:36.298Z,10.87
2023-04-23T01:02:04.111Z,10.85
2023-04-23T01:04:33.069Z,10.83
2023-04-23T01:07:00.989Z,10.81
2023-04-23T01:09:29.108Z,10.83
2023-04-23T01:11:58.143Z,10.83
2023-04-23T01:14:26.145Z,10.80
2023-04-23T01:16:54.076Z,10.81
2023-04-23T01:19:21.751Z,10.80
2023-04-23T01:21:51.380Z,10.78
2023-04-23T01:24:19.371Z,10.79
2023-04-23T01:26:47.027Z,10.81
2023-04-23T01:29:15.160Z,10.82
2023-04-23T01:31:43.647Z,10.81
2023-04-23T01:34:11.482Z,10.82
2023-04-23T01:36:39.252Z,10.84
2023-04-23T01:39:06.937Z,10.83
2023-04-23T01:41:36.151Z,10.82
2023-04-23T01:44:03.918Z,10.79
2023-04-23T01:46:31.916Z,10.78
2023-04-23T01:48:59.866Z,10.76
2023-04-23T01:51:27.432Z,10.72
2023-04-23T01:53:54.971Z,10.69
2023-04-23T01:56:26.068Z,10.66
2023-04-23T01:58:53.840Z,10.64
2023-04-23T02:01:21.556Z,10.58
2023-04-23T02:03:51.010Z,10.53
2023-04-23T02:06:18.716Z,10.50
2023-04-23T02:08:46.948Z,10.45
2023-04-23T02:11:15.100Z,10.41
2023-04-23T02:13:42.591Z,10.38
2023-04-23T02:16:10.516Z,10.36
2023-04-23T02:18:38.090Z,10.36
2023-04-23T02:21:06.542Z,10.35
2023-04-23T02:23:34.563Z,10.34
2023-04-23T02:26:02.172Z,10.31
2023-04-23T02:28:29.674Z,10.29
2023-04-23T02:30:57.244Z,10.28
2023-04-23T02:33:25.972Z,10.26
2023-04-23T02:35:53.527Z,10.22
2023-04-23T02:38:21.134Z,10.19
2023-04-23T02:40:48.759Z,10.17
2023-04-23T02:43:16.354Z,10.12
2023-04-23T02:45:44.950Z,10.10
2023-04-23T02:48:13.054Z,10.07
2023-04-23T02:50:41.655Z,10.03
2023-04-23T02:53:09.236Z,10.00
2023-04-23T02:55:37.047Z,9.98
2023-04-23T02:58:04.611Z,9.94
2023-04-23T03:00:34.575Z,9.90
2023-04-23T03:03:02.369Z,9.87
2023-04-23T03:05:30.304Z,9.83
2023-04-23T03:07:57.822Z,9.79
2023-04-23T03:10:25.537Z,9.76
2023-04-23T03:12:53.142Z,9.72
2023-04-23T03:15:21.092Z,9.66
2023-04-23T03:17:48.964Z,9.62
2023-04-23T03:20:16.651Z,9.61
2023-04-23T03:22:44.428Z,9.58
2023-04-23T03:25:12.299Z,9.57
2023-04-23T03:27:40.740Z,9.56
2023-04-23T03:30:09.169Z,9.53
2023-04-23T03:32:36.938Z,9.50
2023-04-23T03:35:05.031Z,9.48
2023-04-23T03:37:33.456Z,9.45
2023-04-23T03:40:07.115Z,9.42
2023-04-23T03:42:37.476Z,9.43
2023-04-23T03:45:06.402Z,9.41
2023-04-23T03:47:34.883Z,9.41
2023-04-23T03:50:03.184Z,9.40
2023-04-23T03:52:31.123Z,9.40
2023-04-23T03:54:59.138Z,9.38
2023-04-23T03:57:31.941Z,9.38
2023-04-23T04:00:16.201Z,9.36
2023-04-23T04:02:44.157Z,9.33
2023-04-23T04:05:12.063Z,9.33
2023-04-23T04:07:41.209Z,9.31
2023-04-23T04:10:09.286Z,9.27
2023-04-23T04:12:36.997Z,9.23
2023-04-23T04:15:05.219Z,9.20
2023-04-23T04:17:32.784Z,9.17
2023-04-23T04:20:00.678Z,9.14
2023-04-23T04:22:28.264Z,9.12
2023-04-23T04:24:56.320Z,9.07
2023-04-23T04:27:23.952Z,9.03
2023-04-23T04:30:03.418Z,8.99
2023-04-23T04:32:34.538Z,8.88
2023-04-23T04:35:02.725Z,8.83
2023-04-23T04:45:29.193Z,8.53
2023-04-23T04:47:56.797Z,8.48
2023-04-23T04:50:24.703Z,8.43
2023-04-23T04:52:52.245Z,8.39
2023-04-23T04:55:20.472Z,8.36
2023-04-23T04:57:48.058Z,8.32
2023-04-23T05:00:29.481Z,8.26
2023-04-23T05:02:57.974Z,8.22
2023-04-23T05:05:26.934Z,8.16
2023-04-23T05:07:54.976Z,8.12
2023-04-23T05:10:22.489Z,8.09
2023-04-23T05:12:51.950Z,8.07
2023-04-23T05:15:19.823Z,8.04
2023-04-23T05:17:47.501Z,8.03
2023-04-23T05:20:15.382Z,8.03
2023-04-23T05:22:42.990Z,8.04
2023-04-23T05:25:12.189Z,8.12
2023-04-23T05:27:40.979Z,8.20
2023-04-23T05:30:10.411Z,8.25
2023-04-23T05:32:38.873Z,8.26
2023-04-23T05:35:07.170Z,8.25
2023-04-23T05:37:34.938Z,8.23
2023-04-23T05:40:02.897Z,8.19
2023-04-23T05:42:34.448Z,8.16
2023-04-23T05:45:02.929Z,8.13
2023-04-23T05:47:32.204Z,8.15
2023-04-23T05:50:00.149Z,8.22
2023-04-23T05:52:27.887Z,8.31
2023-04-23T05:54:55.494Z,8.41
2023-04-23T05:57:23.361Z,8.54
2023-04-23T05:59:51.187Z,8.64
2023-04-23T06:02:18.775Z,8.80
2023-04-23T06:04:47.002Z,8.96
2023-04-23T06:07:15.431Z,9.15
2023-04-23T06:09:42.971Z,9.41
2023-04-23T06:12:11.517Z,9.88
2023-04-23T06:14:39.381Z,10.35
2023-04-23T06:17:07.145Z,10.80
2023-04-23T06:19:34.752Z,11.20
2023-04-23T06:22:02.368Z,11.64
2023-04-23T06:24:30.357Z,12.25
2023-04-23T06:26:57.971Z,12.90
2023-04-23T06:29:26.868Z,13.50
2023-04-23T06:32:03.625Z,14.11
2023-04-23T06:34:31.608Z,14.67
2023-04-23T06:36:59.163Z,15.17
2023-04-23T06:39:26.882Z,15.61
2023-04-23T06:41:54.695Z,16.09
2023-04-23T06:44:35.308Z,16.57
2023-04-23T06:47:04.150Z,16.93
2023-04-23T06:49:31.903Z,17.23
2023-04-23T06:51:59.464Z,17.56
2023-04-23T06:54:26.950Z,18.07
2023-04-23T06:56:54.527Z,18.51
2023-04-23T06:59:22.663Z,18.85
2023-04-23T07:01:54.386Z,19.07
2023-04-23T07:04:22.069Z,19.02
2023-04-23T07:06:49.625Z,18.57
2023-04-23T07:09:17.175Z,18.71
2023-04-23T07:11:44.907Z,19.09
2023-04-23T07:14:12.529Z,19.30
2023-04-23T07:16:40.182Z,19.54
2023-04-23T07:19:07.848Z,19.77
2023-04-23T07:21:36.022Z,19.87
2023-04-23T07:24:07.040Z,19.92
2023-04-23T07:26:36.212Z,20.07
2023-04-23T07:29:04.827Z,20.31
2023-04-23T07:31:32.559Z,20.42
2023-04-23T07:34:00.147Z,20.78
2023-04-23T07:36:27.915Z,21.17
2023-04-23T07:38:55.521Z,21.44
2023-04-23T07:41:23.187Z,21.74
2023-04-23T07:43:51.022Z,22.02
2023-04-23T07:46:18.744Z,22.25
2023-04-23T07:48:46.405Z,22.31
2023-04-23T07:51:13.997Z,22.54
2023-04-23T07:53:41.633Z,22.78
2023-04-23T07:56:09.288Z,23.00
2023-04-23T07:58:36.839Z,23.43
2023-04-23T08:01:04.655Z,23.48
2023-04-23T08:03:32.436Z,22.95
2023-04-23T08:06:00.167Z,22.21
2023-04-23T08:08:27.769Z,21.42
2023-04-23T08:10:55.398Z,20.66
2023-04-23T08:13:22.937Z,19.92
2023-04-23T08:15:52.183Z,18.99
2023-04-23T08:18:19.958Z,18.15
2023-04-23T08:20:47.689Z,17.52
2023-04-23T08:23:15.511Z,17.22
2023-04-23T08:25:43.428Z,16.93
2023-04-23T08:28:10.991Z,16.54
2023-04-23T08:30:38.938Z,16.27
2023-04-23T08:33:06.545Z,16.18
2023-04-23T08:35:34.119Z,16.86
2023-04-23T08:38:02.281Z,18.28
2023-04-23T08:40:32.457Z,19.12
2023-04-23T08:42:59.990Z,19.10
2023-04-23T08:45:27.736Z,18.86
2023-04-23T08:48:02.543Z,18.50
2023-04-23T08:50:31.194Z,18.05
2023-04-23T08:52:59.207Z,17.55
2023-04-23T08:55:26.872Z,17.10
2023-04-23T08:57:58.587Z,16.63
2023-04-23T09:00:26.271Z,16.19
2023-04-23T09:02:54.347Z,15.80
2023-04-23T09:05:22.736Z,15.46
2023-04-23T09:07:50.373Z,15.13
2023-04-23T09:10:18.684Z,14.88
2023-04-23T09:12:46.891Z,14.59
2023-04-23T09:15:14.572Z,14.42
2023-04-23T09:17:46.053Z,14.30
2023-04-23T09:20:15.421Z,14.20
2023-04-23T09:22:45.989Z,14.08
2023-04-23T09:25:19.605Z,13.95
2023-04-23T09:27:50.009Z,13.83
2023-04-23T09:30:18.566Z,13.75
2023-04-23T09:32:47.300Z,13.70
2023-04-23T09:35:17.735Z,13.70
2023-04-23T09:37:49.028Z,13.75
2023-04-23T09:40:20.331Z,13.80
2023-04-23T09:42:55.898Z,13.78
2023-04-23T09:45:26.704Z,13.76
2023-04-23T09:47:56.532Z,13.77
2023-04-23T09:50:37.074Z,13.80
2023-04-23T09:53:09.167Z,13.76
2023-04-23T09:55:39.833Z,13.72
2023-04-23T09:58:12.703Z,13.70
2023-04-23T10:00:40.932Z,13.72
2023-04-23T10:03:10.099Z,13.73
2023-04-23T10:08:15.196Z,13.78
2023-04-23T10:10:57.498Z,13.84
2023-04-23T10:13:30.909Z,13.90
2023-04-23T10:16:10.141Z,14.01
2023-04-23T10:18:42.236Z,14.11
2023-04-23T10:21:11.970Z,14.19
2023-04-23T10:23:43.086Z,14.19
2023-04-23T10:26:15.171Z,14.19
2023-04-23T10:28:48.222Z,14.23
2023-04-23T10:31:16.384Z,14.23
2023-04-23T10:33:55.990Z,14.29
2023-04-23T10:36:27.843Z,14.30
2023-04-23T10:39:00.277Z,14.30
2023-04-23T10:41:43.606Z,14.33
2023-04-23T10:44:17.225Z,14.27
2023-04-23T10:46:58.783Z,14.22
2023-04-23T10:49:31.336Z,14.24
2023-04-23T10:54:36.244Z,14.24
2023-04-23T10:57:06.011Z,14.17
2023-04-23T10:59:35.790Z,14.16
2023-04-23T11:02:07.165Z,14.17
2023-04-23T11:04:37.580Z,14.19
2023-04-23T11:07:10.488Z,14.09
2023-04-23T11:09:44.608Z,13.96
2023-04-23T11:12:14.413Z,13.85
2023-04-23T11:14:46.164Z,13.70
2023-04-23T11:17:19.165Z,13.55
2023-04-23T11:20:07.417Z,13.43
2023-04-23T11:22:39.142Z,13.31
2023-04-23T11:25:27.102Z,13.16
2023-04-23T11:27:56.219Z,13.12
2023-04-23T11:30:25.827Z,13.09
2023-04-23T11:32:55.940Z,13.05
2023-04-23T11:35:28.508Z,13.00
2023-04-23T11:37:57.067Z,13.02
2023-04-23T11:40:24.802Z,13.13
2023-04-23T11:42:57.714Z,13.29
2023-04-23T11:45:29.701Z,13.50
2023-04-23T11:47:59.520Z,13.75
2023-04-23T11:50:39.137Z,14.10
2023-04-23T11:53:09.058Z,14.26
2023-04-23T11:55:37.176Z,14.23
2023-04-23T11:58:04.716Z,14.19
2023-04-23T12:00:32.318Z,14.20
2023-04-23T12:03:01.675Z,14.21
2023-04-23T12:05:36.892Z,14.27
2023-04-23T12:08:17.994Z,14.33
2023-04-23T12:10:54.812Z,14.40
2023-04-23T12:13:26.364Z,14.47
2023-04-23T12:15:59.103Z,14.47
2023-04-23T12:18:29.829Z,14.44
2023-04-23T12:21:10.699Z,14.46
2023-04-23T12:23:39.980Z,14.50
2023-04-23T12:26:16.011Z,14.58
2023-04-23T12:28:54.196Z,14.79
2023-04-23T12:31:27.833Z,15.00
2023-04-23T12:34:09.506Z,15.28
2023-04-23T12:36:38.719Z,15.70
2023-04-23T12:39:33.923Z,16.01
2023-04-23T12:42:06.884Z,16.07
2023-04-23T12:44:36.169Z,16.12
2023-04-23T12:47:15.396Z,16.07
2023-04-23T12:49:43.940Z,15.94
2023-04-23T12:52:13.854Z,15.81
2023-04-23T12:54:42.296Z,15.79
2023-04-23T12:57:14.402Z,15.74
2023-04-23T12:59:42.214Z,15.70
2023-04-23T13:02:10.100Z,15.65
2023-04-23T13:04:37.823Z,15.88
2023-04-23T13:07:05.361Z,16.18
2023-04-23T13:09:33.033Z,16.25
2023-04-23T13:12:00.962Z,16.16
2023-04-23T13:14:29.069Z,16.21
2023-04-23T13:16:58.067Z,16.30
2023-04-23T13:19:25.810Z,16.28
2023-04-23T13:21:53.812Z,16.21
2023-04-23T13:24:21.597Z,16.18
2023-04-23T13:26:49.326Z,16.18
2023-04-23T13:29:16.895Z,16.21
2023-04-23T13:31:44.421Z,16.32
2023-04-23T13:34:12.016Z,16.50
2023-04-23T13:36:41.700Z,16.65
2023-04-23T13:39:11.157Z,16.70
2023-04-23T13:41:38.792Z,16.68
2023-04-23T13:44:06.426Z,16.55
2023-04-23T13:46:34.129Z,16.60
2023-04-23T13:49:01.800Z,16.77
2023-04-23T13:51:35.228Z,16.90
2023-04-23T13:54:03.819Z,16.86
2023-04-23T13:56:31.841Z,16.74
2023-04-23T14:01:34.592Z,16.52
2023-04-23T14:04:04.375Z,16.48
2023-04-23T14:06:32.291Z,16.47
2023-04-23T14:08:59.836Z,16.57
2023-04-23T14:11:27.503Z,16.67
2023-04-23T14:13:56.467Z,16.78
2023-04-23T14:16:24.237Z,16.75
2023-04-23T14:18:51.926Z,16.71
2023-04-23T14:21:19.473Z,16.66
2023-04-23T14:24:17.285Z,16.60
2023-04-23T14:26:49.149Z,16.56
2023-04-23T14:29:23.527Z,16.43
2023-04-23T14:31:51.880Z,16.34
2023-04-23T14:34:19.381Z,16.27
2023-04-23T14:36:49.249Z,16.22
2023-04-23T14:39:17.262Z,16.13
2023-04-23T14:41:45.457Z,16.07
2023-04-23T14:44:13.165Z,16.02
2023-04-23T14:46:40.828Z,15.86
2023-04-23T14:49:08.985Z,15.57
2023-04-23T14:51:37.574Z,15.34
2023-04-23T14:54:05.473Z,15.22
2023-04-23T14:56:33.043Z,15.15
2023-04-23T14:59:00.737Z,15.13
2023-04-23T15:01:29.558Z,15.08
2023-04-23T15:03:57.348Z,14.99
2023-04-23T15:06:25.026Z,14.89
2023-04-23T15:08:52.739Z,14.86
2023-04-23T15:11:20.658Z,14.86
2023-04-23T15:14:23.424Z,14.81
2023-04-23T15:16:51.972Z,14.79
2023-04-23T15:19:19.619Z,14.75
2023-04-23T15:21:48.296Z,14.71
2023-04-23T15:24:16.604Z,14.69
2023-04-23T15:26:48.782Z,14.59
2023-04-23T15:29:16.634Z,14.55
2023-04-23T15:31:44.227Z,14.56
2023-04-23T15:34:12.396Z,14.56
2023-04-23T15:36:40.063Z,14.54
2023-04-23T15:39:08.737Z,14.55
2023-04-23T15:41:39.432Z,14.55
2023-04-23T15:44:12.104Z,14.40
2023-04-23T15:46:40.181Z,14.24
2023-04-23T15:49:07.931Z,14.18
2023-04-23T15:51:36.495Z,14.13
2023-04-23T15:54:08.288Z,14.14
2023-04-23T15:56:36.657Z,14.13
2023-04-23T15:59:04.235Z,14.10
2023-04-23T16:01:31.933Z,14.08
2023-04-23T16:04:09.478Z,14.05
2023-04-23T16:06:38.227Z,14.01
2023-04-23T16:09:08.982Z,14.02
2023-04-23T16:11:38.127Z,14.11
2023-04-23T16:14:06.383Z,14.20
2023-04-23T16:16:34.164Z,14.24
2023-04-23T16:19:04.834Z,14.32
2023-04-23T16:21:32.800Z,14.38
2023-04-23T16:24:00.352Z,14.38
2023-04-23T16:26:29.446Z,14.33
2023-04-23T16:29:16.466Z,14.29
2023-04-23T16:31:45.186Z,14.22
2023-04-23T16:34:12.745Z,14.26
2023-04-23T16:36:40.387Z,14.28
2023-04-23T16:39:07.946Z,14.24
2023-04-23T16:41:35.544Z,14.26
2023-04-23T16:44:03.095Z,14.20
2023-04-23T16:46:31.793Z,14.19
2023-04-23T16:48:59.952Z,14.14
2023-04-23T16:51:28.473Z,14.03
2023-04-23T16:53:57.263Z,13.87
2023-04-23T16:56:25.500Z,13.73
2023-04-23T16:58:53.156Z,13.64
2023-04-23T17:01:20.855Z,13.59
2023-04-23T17:03:48.589Z,13.51
2023-04-23T17:06:25.367Z,13.43
2023-04-23T17:08:53.633Z,13.39
2023-04-23T17:11:21.783Z,13.32
2023-04-23T17:13:49.715Z,13.28
2023-04-23T17:16:17.544Z,13.26
2023-04-23T17:18:45.525Z,13.20
2023-04-23T17:21:13.410Z,13.17
2023-04-23T17:23:40.962Z,13.14
2023-04-23T17:26:08.507Z,13.14
2023-04-23T17:28:41.094Z,13.13
2023-04-23T17:31:09.004Z,13.16
2023-04-23T17:33:36.679Z,13.14
2023-04-23T17:36:04.623Z,13.15
2023-04-23T17:38:32.181Z,13.16
2023-04-23T17:41:00.062Z,13.14
2023-04-23T17:43:27.850Z,13.09
2023-04-23T17:45:55.406Z,13.03
2023-04-23T17:48:23.541Z,12.96
2023-04-23T17:50:51.354Z,12.88
2023-04-23T17:53:18.917Z,12.81
2023-04-23T17:55:46.973Z,12.72
2023-04-23T17:58:14.619Z,12.67
2023-04-23T18:00:43.084Z,12.58
2023-04-23T18:03:12.020Z,12.54
2023-04-23T18:05:39.982Z,12.52
2023-04-23T18:08:08.311Z,12.50
2023-04-23T18:10:36.045Z,12.46
2023-04-23T18:13:06.530Z,12.41
2023-04-23T18:15:34.065Z,12.37
2023-04-23T18:18:01.668Z,12.35
2023-04-23T18:20:30.338Z,12.33
2023-04-23T18:22:57.926Z,12.27
2023-04-23T18:25:26.854Z,12.25
2023-04-23T18:27:54.390Z,12.25
2023-04-23T18:30:25.786Z,12.27
2023-04-23T18:33:09.022Z,12.25
2023-04-23T18:35:36.602Z,12.27
2023-04-23T18:38:11.063Z,12.23
2023-04-23T18:40:38.650Z,12.12
2023-04-23T18:43:06.657Z,12.05
2023-04-23T18:45:34.834Z,12.03
2023-04-23T18:48:28.031Z,11.98
2023-04-23T18:50:57.952Z,11.93
2023-04-23T18:53:25.535Z,11.87
2023-04-23T18:55:53.038Z,11.87
2023-04-23T18:58:20.604Z,11.80
2023-04-23T19:00:48.252Z,11.76
2023-04-23T19:03:26.113Z,11.66
2023-04-23T19:05:55.028Z,11.54
2023-04-23T19:08:28.317Z,11.42
2023-04-23T19:10:56.488Z,11.35
2023-04-23T19:13:24.499Z,11.28
2023-04-23T19:15:52.312Z,11.21
2023-04-23T19:18:19.900Z,11.20
2023-04-23T19:20:47.502Z,11.17
2023-04-23T19:23:15.254Z,11.17
2023-04-23T19:25:43.006Z,11.13
2023-04-23T19:28:10.623Z,11.10
2023-04-23T19:30:38.294Z,11.08
2023-04-23T19:33:06.091Z,11.09
2023-04-23T19:35:33.687Z,11.09
2023-04-23T19:38:01.234Z,11.07
2023-04-23T19:40:29.344Z,11.07
2023-04-23T19:42:56.913Z,11.07
2023-04-23T19:45:24.788Z,11.06
2023-04-23T19:47:52.906Z,11.02
2023-04-23T19:50:20.761Z,10.96
2023-04-23T19:52:48.496Z,10.90
2023-04-23T19:55:18.199Z,10.85
2023-04-23T19:57:46.224Z,10.74
2023-04-23T20:00:14.490Z,10.66
2023-04-23T20:02:42.312Z,10.60
2023-04-23T20:05:12.960Z,10.57
2023-04-23T20:07:40.727Z,10.54
2023-04-23T20:10:08.709Z,10.48
2023-04-23T20:12:36.436Z,10.45
2023-04-23T20:15:04.261Z,10.41
2023-04-23T20:17:32.938Z,10.38
2023-04-23T20:20:02.884Z,10.31
2023-04-23T20:22:31.008Z,10.29
2023-04-23T20:24:59.157Z,10.29
2023-04-23T20:27:26.928Z,10.27
2023-04-23T20:29:54.583Z,10.22
2023-04-23T20:32:22.233Z,10.19
2023-04-23T20:34:49.749Z,10.21
2023-04-23T20:37:21.614Z,10.23
2023-04-23T20:39:50.095Z,10.21
2023-04-23T20:42:17.683Z,10.24
2023-04-23T20:44:49.232Z,10.25
2023-04-23T20:47:16.838Z,10.23
2023-04-23T20:49:44.563Z,10.19
2023-04-23T20:52:13.615Z,10.13
2023-04-23T20:54:41.605Z,10.10
2023-04-23T20:57:09.149Z,10.06
2023-04-23T20:59:36.671Z,10.07
2023-04-23T21:02:06.591Z,10.10
2023-04-23T21:04:34.397Z,10.09
2023-04-23T21:07:02.141Z,10.03
2023-04-23T21:09:29.856Z,9.95
2023-04-23T21:11:57.571Z,9.89
2023-04-23T21:14:25.205Z,9.86
2023-04-23T21:16:56.288Z,9.81
2023-04-23T21:19:23.839Z,9.77
2023-04-23T21:21:51.600Z,9.77
2023-04-23T21:24:19.233Z,9.77
2023-04-23T21:26:46.813Z,9.73
2023-04-23T21:29:14.484Z,9.74
2023-04-23T21:31:51.473Z,9.73
2023-04-23T21:34:22.340Z,9.67
2023-04-23T21:36:51.631Z,9.58
2023-04-23T21:39:19.289Z,9.56
2023-04-23T21:41:47.329Z,9.52
2023-04-23T21:44:14.976Z,9.45
2023-04-23T21:46:43.286Z,9.40
2023-04-23T21:49:11.984Z,9.39
2023-04-23T21:51:41.127Z,9.37
2023-04-23T21:54:09.339Z,9.35
2023-04-23T21:56:37.331Z,9.32
2023-04-23T21:59:04.861Z,9.28
2023-04-23T22:01:35.037Z,9.27
2023-04-23T22:04:04.790Z,9.29
2023-04-23T22:06:34.431Z,9.28
2023-04-23T22:09:02.435Z,9.24
2023-04-23T22:11:31.386Z,9.24
2023-04-23T22:14:00.165Z,9.26
2023-04-23T22:16:29.056Z,9.29
2023-04-23T22:18:57.492Z,9.33
2023-04-23T22:21:25.168Z,9.37
2023-04-23T22:23:52.852Z,9.38
2023-04-23T22:26:21.219Z,9.36
2023-04-23T22:28:48.790Z,9.31
2023-04-23T22:31:17.456Z,9.27
2023-04-23T22:33:45.285Z,9.27
2023-04-23T22:36:14.058Z,9.27
2023-04-23T22:38:42.039Z,9.23
2023-04-23T22:41:09.612Z,9.21
2023-04-23T22:43:37.197Z,9.21
2023-04-23T22:46:04.828Z,9.22
2023-04-23T22:48:32.554Z,9.23
2023-04-23T22:51:00.058Z,9.19
2023-04-23T22:53:27.615Z,9.17
2023-04-23T22:55:56.411Z,9.17
2023-04-23T22:58:23.971Z,9.13
2023-04-23T23:00:51.501Z,9.10
2023-04-23T23:03:19.287Z,9.08
2023-04-23T23:05:47.108Z,9.04
2023-04-23T23:08:14.654Z,9.00
2023-04-23T23:10:42.229Z,8.95
2023-04-23T23:13:09.742Z,8.94
2023-04-23T23:15:37.947Z,8.87
2023-04-23T23:18:06.275Z,8.82
2023-04-23T23:20:33.951Z,8.77
2023-04-23T23:23:01.485Z,8.65
2023-04-23T23:25:29.123Z,8.58
2023-04-23T23:27:56.666Z,8.54
2023-04-23T23:30:25.724Z,8.49
2023-04-23T23:32:53.386Z,8.48
2023-04-23T23:35:21.063Z,8.42
2023-04-23T23:37:48.623Z,8.39
2023-04-23T23:40:16.357Z,8.37
2023-04-23T23:42:43.892Z,8.36
2023-04-23T23:45:11.601Z,8.33
2023-04-23T23:47:39.252Z,8.30
2023-04-23T23:50:07.404Z,8.24
2023-04-23T23:52:34.944Z,8.20
2023-04-23T23:55:02.591Z,8.14
2023-04-23T23:57:30.221Z,8.10
2023-04-23T23:59:57.757Z,8.06
